Time;durP1;ratioP1;P1;durP2;ratioP2;P2;SDS_P1;SDS_P2;PMS_P1;PMS_P2;Temp;Humidity;BMP_temperature;BMP_pressure;BME280_temperature;BME280_humidity;BME280_pressure;Samples;Min_cycle;Max_cycle;Signal;HPM_P1;HPM_P2
2023/06/24 00:01:27;;;;;;;8.63;7.35;;;15.00;76.30;;;;;;5061283;28;20077;-72
2023/06/24 00:03:53;;;;;;;10.07;7.55;;;15.00;76.30;;;;;;5061154;28;20481;-73
2023/06/24 00:06:19;;;;;;;12.02;7.07;;;15.00;76.50;;;;;;5057101;28;20044;-73
2023/06/24 00:08:46;;;;;;;8.38;6.93;;;15.00;76.30;;;;;;5055998;28;20052;-79
2023/06/24 00:11:12;;;;;;;11.98;6.95;;;15.10;76.20;;;;;;5038388;28;20029;-72
2023/06/24 00:13:38;;;;;;;8.82;7.18;;;15.00;77.10;;;;;;5056037;28;20112;-74
2023/06/24 00:16:06;;;;;;;11.23;7.35;;;14.90;76.50;;;;;;5056043;28;20550;-75
2023/06/24 00:18:32;;;;;;;13.15;7.60;;;15.00;76.50;;;;;;5055874;28;20028;-77
2023/06/24 00:20:57;;;;;;;8.02;7.22;;;14.90;76.60;;;;;;5055736;28;20067;-72
2023/06/24 00:23:26;;;;;;;15.82;6.80;;;14.90;76.70;;;;;;5055823;28;20028;-73
2023/06/24 00:25:56;;;;;;;11.98;7.60;;;15.00;80.00;;;;;;5037867;28;20025;-73
2023/06/24 00:28:22;;;;;;;11.48;6.95;;;15.40;78.50;;;;;;5055474;28;20378;-72
2023/06/24 00:30:48;;;;;;;7.65;6.93;;;15.60;76.40;;;;;;5055236;28;20496;-71
2023/06/24 00:33:14;;;;;;;8.35;6.55;;;15.80;74.30;;;;;;5055637;28;20063;-73
2023/06/24 00:35:41;;;;;;;8.90;6.70;;;15.90;74.10;;;;;;5055584;28;20079;-72
2023/06/24 00:38:06;;;;;;;9.80;6.55;;;16.10;72.90;;;;;;5054784;28;20029;-70
2023/06/24 00:40:33;;;;;;;6.35;5.75;;;16.20;73.10;;;;;;5055560;28;20032;-71
2023/06/24 00:43:01;;;;;;;10.27;6.68;;;16.30;71.90;;;;;;5055362;28;20036;-72
2023/06/24 00:45:27;;;;;;;7.22;6.25;;;16.40;72.10;;;;;;5037413;28;20063;-71
2023/06/24 00:47:56;;;;;;;9.32;6.20;;;16.40;71.20;;;;;;5055320;28;20074;-71
2023/06/24 00:50:22;;;;;;;7.07;6.28;;;16.50;70.50;;;;;;5055196;28;20478;-74
2023/06/24 00:52:49;;;;;;;7.22;6.35;;;16.60;71.30;;;;;;5055270;28;20060;-70
2023/06/24 00:55:15;;;;;;;7.30;5.28;;;16.60;70.00;;;;;;5054846;28;20025;-70
2023/06/24 00:57:46;;;;;;;9.63;6.50;;;16.70;70.00;;;;;;5053622;28;20430;-70
2023/06/24 01:00:17;;;;;;;6.88;5.70;;;16.80;68.30;;;;;;5055481;28;20013;-69
2023/06/24 01:02:43;;;;;;;6.63;6.03;;;16.70;69.20;;;;;;5056590;28;20044;-72
2023/06/24 01:05:12;;;;;;;6.95;5.43;;;16.80;67.60;;;;;;5063311;28;20076;-75
2023/06/24 01:07:38;;;;;;;7.65;6.15;;;16.60;67.80;;;;;;5054800;28;20025;-72
2023/06/24 01:10:05;;;;;;;8.20;6.93;;;16.40;68.60;;;;;;5055237;28;20067;-72
2023/06/24 01:12:33;;;;;;;12.95;6.88;;;16.30;69.30;;;;;;5037382;28;20029;-74
2023/06/24 01:14:59;;;;;;;9.57;7.00;;;16.10;69.70;;;;;;5036927;28;20469;-74
2023/06/24 01:17:49;;;;;;;7.65;6.18;;;16.10;70.00;;;;;;5036708;28;20044;-73
2023/06/24 01:20:27;;;;;;;6.45;5.80;;;15.90;70.50;;;;;;5039541;28;20082;-75
2023/06/24 01:22:58;;;;;;;7.10;5.53;;;15.80;71.00;;;;;;5054924;28;20032;-72
2023/06/24 01:26:00;;;;;;;9.60;6.55;;;15.80;71.20;;;;;;5054036;28;20053;-83
2023/06/24 01:28:45;;;;;;;9.63;6.43;;;15.80;71.30;;;;;;5055151;28;20028;-84
2023/06/24 01:31:30;;;;;;;9.15;7.57;;;15.80;71.00;;;;;;5054937;28;20025;-84
2023/06/24 01:34:31;;;;;;;8.93;7.80;;;15.70;71.20;;;;;;5055070;28;20035;-84
2023/06/24 01:37:17;;;;;;;9.48;6.60;;;15.70;71.60;;;;;;4987041;28;20059;-84
2023/06/24 01:39:57;;;;;;;8.30;6.82;;;15.60;71.40;;;;;;5037194;28;20021;-84
2023/06/24 01:42:22;;;;;;;9.45;6.60;;;15.60;71.70;;;;;;5036932;28;20029;-85
2023/06/24 01:44:50;;;;;;;8.07;7.13;;;15.50;71.80;;;;;;5055321;28;20028;-85
2023/06/24 01:47:25;;;;;;;9.38;7.45;;;15.50;72.00;;;;;;5054615;28;20076;-85
2023/06/24 01:49:54;;;;;;;8.90;6.80;;;15.50;72.00;;;;;;5054711;28;20028;-84
2023/06/24 01:52:23;;;;;;;7.88;7.07;;;15.50;71.90;;;;;;5054507;28;20603;-83
2023/06/24 01:54:51;;;;;;;12.10;8.57;;;15.50;71.80;;;;;;5054389;28;20047;-83
2023/06/24 01:57:18;;;;;;;9.70;7.75;;;15.50;71.90;;;;;;5054050;28;20033;-84
2023/06/24 01:59:45;;;;;;;10.88;8.43;;;15.40;71.70;;;;;;5054020;28;20355;-85
2023/06/24 02:02:13;;;;;;;10.27;8.50;;;15.40;72.00;;;;;;5036616;28;20062;-86
2023/06/24 02:04:39;;;;;;;11.65;8.82;;;15.30;72.40;;;;;;5036521;28;20048;-84
2023/06/24 02:07:07;;;;;;;9.52;8.20;;;15.20;72.40;;;;;;5054257;28;20029;-85
2023/06/24 02:09:33;;;;;;;9.70;8.35;;;15.20;72.60;;;;;;5053865;28;20445;-85
2023/06/24 02:12:02;;;;;;;8.32;7.47;;;15.20;72.50;;;;;;5054132;28;20446;-84
2023/06/24 02:14:30;;;;;;;8.32;6.63;;;15.10;72.90;;;;;;5053876;28;20350;-85
2023/06/24 02:16:58;;;;;;;7.25;6.55;;;15.00;73.30;;;;;;5054000;28;20033;-84
2023/06/24 02:19:31;;;;;;;7.95;7.00;;;15.00;73.50;;;;;;5053996;28;20017;-85
2023/06/24 02:21:59;;;;;;;7.75;6.72;;;15.00;73.60;;;;;;5053606;28;20100;-83
2023/06/24 02:24:27;;;;;;;8.10;6.88;;;14.90;73.80;;;;;;5053695;28;20025;-84
2023/06/24 02:26:54;;;;;;;8.95;7.05;;;14.90;74.00;;;;;;5053960;28;20021;-84
2023/06/24 02:29:20;;;;;;;7.20;6.50;;;14.80;74.10;;;;;;5053774;28;20033;-82
2023/06/24 02:31:46;;;;;;;7.72;6.85;;;14.80;74.40;;;;;;5056349;28;20032;-72
2023/06/24 02:34:11;;;;;;;8.18;7.25;;;14.60;74.70;;;;;;5056715;28;20037;-72
2023/06/24 02:36:37;;;;;;;6.90;6.30;;;14.60;75.00;;;;;;5054981;28;20037;-76
2023/06/24 02:39:03;;;;;;;9.20;6.20;;;14.60;75.00;;;;;;5035823;28;20047;-77
2023/06/24 02:41:29;;;;;;;8.38;6.50;;;14.60;75.10;;;;;;5053530;28;20032;-83
2023/06/24 02:43:54;;;;;;;8.73;6.78;;;14.60;75.10;;;;;;5053457;28;20029;-73
2023/06/24 02:46:21;;;;;;;10.73;7.25;;;14.50;75.30;;;;;;5053751;28;20025;-77
2023/06/24 02:48:49;;;;;;;7.30;6.50;;;14.40;75.60;;;;;;5054400;28;20025;-76
2023/06/24 02:51:15;;;;;;;8.43;7.43;;;14.40;76.00;;;;;;5053743;28;20481;-75
2023/06/24 02:53:41;;;;;;;7.28;6.47;;;14.30;76.30;;;;;;5053222;28;20477;-76
2023/06/24 02:56:08;;;;;;;7.20;6.43;;;14.20;76.40;;;;;;5052972;28;20083;-73
2023/06/24 02:58:38;;;;;;;9.95;6.60;;;14.20;76.50;;;;;;5053261;28;20470;-80
2023/06/24 03:01:03;;;;;;;7.78;6.78;;;14.20;76.40;;;;;;5053119;28;20013;-83
2023/06/24 03:03:30;;;;;;;9.88;6.75;;;14.20;76.40;;;;;;5053430;28;20087;-80
2023/06/24 03:05:59;;;;;;;9.75;6.90;;;14.10;76.60;;;;;;5053715;28;20431;-83
2023/06/24 03:08:25;;;;;;;7.60;6.90;;;14.10;76.80;;;;;;5057708;28;20045;-81
2023/06/24 03:10:54;;;;;;;7.60;6.75;;;14.10;77.00;;;;;;5055293;28;20465;-83
2023/06/24 03:13:20;;;;;;;9.13;6.50;;;14.10;77.10;;;;;;5054345;28;20021;-73
2023/06/24 03:15:46;;;;;;;8.45;6.88;;;14.00;77.10;;;;;;5053018;28;20035;-73
2023/06/24 03:18:11;;;;;;;7.97;6.47;;;14.00;77.40;;;;;;5052909;28;20041;-79
2023/06/24 03:20:38;;;;;;;7.50;6.70;;;14.00;77.70;;;;;;5056112;28;20029;-81
2023/06/24 03:23:06;;;;;;;8.82;6.22;;;14.00;77.50;;;;;;5057428;28;20064;-76
2023/06/24 03:25:32;;;;;;;8.50;5.97;;;14.00;77.50;;;;;;5057368;28;20021;-81
2023/06/24 03:27:58;;;;;;;8.10;6.60;;;14.00;77.50;;;;;;5057152;28;20029;-81
2023/06/24 03:30:24;;;;;;;13.02;6.78;;;14.00;77.40;;;;;;5056828;28;20493;-79
2023/06/24 03:32:49;;;;;;;6.88;6.18;;;13.90;77.50;;;;;;5056843;28;20021;-72
2023/06/24 03:35:15;;;;;;;7.50;6.38;;;13.90;77.60;;;;;;5056785;28;20024;-77
2023/06/24 03:37:41;;;;;;;10.75;7.10;;;13.90;77.70;;;;;;5056549;28;20040;-82
2023/06/24 03:40:08;;;;;;;10.85;6.22;;;13.90;77.80;;;;;;5056563;28;20470;-77
2023/06/24 03:42:33;;;;;;;8.85;6.53;;;13.80;77.60;;;;;;5056773;28;20025;-85
2023/06/24 03:44:59;;;;;;;6.97;6.28;;;13.80;77.70;;;;;;5056555;28;20024;-80
2023/06/24 03:47:24;;;;;;;7.38;6.55;;;13.80;77.80;;;;;;5056515;28;20032;-73
2023/06/24 03:49:50;;;;;;;7.45;6.75;;;13.90;77.80;;;;;;5056532;28;20021;-79
2023/06/24 03:52:17;;;;;;;9.55;6.93;;;13.80;77.70;;;;;;5038264;28;20051;-79
2023/06/24 03:54:42;;;;;;;10.27;6.68;;;13.80;77.80;;;;;;5056399;28;20378;-76
2023/06/24 03:57:09;;;;;;;7.72;6.35;;;13.80;78.00;;;;;;5038041;28;20043;-77
2023/06/24 03:59:34;;;;;;;8.38;6.18;;;13.70;78.20;;;;;;5038978;28;20017;-76
2023/06/24 04:02:00;;;;;;;8.35;6.45;;;13.70;78.50;;;;;;5056427;28;20358;-73
2023/06/24 04:04:26;;;;;;;7.13;5.97;;;13.70;78.50;;;;;;5056035;28;20037;-78
2023/06/24 04:06:51;;;;;;;7.15;6.40;;;13.70;78.40;;;;;;5056091;28;20355;-83
2023/06/24 04:09:17;;;;;;;9.70;6.00;;;13.70;78.20;;;;;;5038229;28;20397;-74
2023/06/24 04:11:42;;;;;;;7.07;6.38;;;13.70;78.20;;;;;;5056164;28;20032;-75
2023/06/24 04:14:09;;;;;;;7.82;6.28;;;13.80;77.90;;;;;;5056376;28;20028;-78
2023/06/24 04:16:35;;;;;;;7.93;5.97;;;13.90;77.90;;;;;;5055814;28;20072;-78
2023/06/24 04:19:01;;;;;;;6.82;5.60;;;13.90;77.50;;;;;;5056238;28;20083;-84
2023/06/24 04:21:27;;;;;;;8.10;5.63;;;14.00;77.40;;;;;;5056141;28;20440;-84
2023/06/24 04:23:52;;;;;;;7.65;6.13;;;14.00;77.20;;;;;;5056067;28;20059;-73
2023/06/24 04:26:18;;;;;;;7.57;5.90;;;14.00;77.30;;;;;;5055997;28;20523;-76
2023/06/24 04:28:44;;;;;;;8.32;5.65;;;14.10;77.10;;;;;;5055626;28;20024;-78
2023/06/24 04:31:09;;;;;;;8.13;6.18;;;14.30;77.40;;;;;;5054143;28;20029;-75
2023/06/24 04:33:35;;;;;;;8.30;5.88;;;14.40;76.90;;;;;;5054971;28;20032;-78
2023/06/24 04:36:01;;;;;;;8.13;5.90;;;14.60;75.80;;;;;;5056482;28;20025;-76
2023/06/24 04:38:27;;;;;;;6.70;6.07;;;14.70;74.80;;;;;;5058539;28;20124;-73
2023/06/24 04:40:53;;;;;;;7.60;5.57;;;14.80;74.10;;;;;;5058416;28;20021;-74
2023/06/24 04:43:18;;;;;;;7.13;5.88;;;14.90;73.70;;;;;;5039230;28;20032;-72
2023/06/24 04:45:44;;;;;;;9.38;5.72;;;15.00;73.60;;;;;;5054725;28;20056;-77
2023/06/24 04:48:09;;;;;;;6.22;5.22;;;15.10;73.10;;;;;;5055172;28;20044;-77
2023/06/24 04:50:35;;;;;;;6.88;5.38;;;15.20;72.40;;;;;;5055443;28;20389;-74
2023/06/24 04:53:01;;;;;;;5.85;5.13;;;15.20;72.10;;;;;;5055084;28;20025;-76
2023/06/24 04:55:29;;;;;;;7.45;5.32;;;15.30;72.20;;;;;;5055254;28;20110;-73
2023/06/24 04:57:55;;;;;;;7.70;5.40;;;15.30;71.60;;;;;;5055448;28;20405;-72
2023/06/24 05:00:23;;;;;;;7.30;5.72;;;15.40;71.40;;;;;;5054956;28;20025;-75
2023/06/24 05:02:48;;;;;;;8.07;5.60;;;15.50;71.10;;;;;;5055044;28;20021;-72
2023/06/24 05:05:14;;;;;;;5.72;5.13;;;15.40;71.10;;;;;;5055011;28;20075;-74
2023/06/24 05:07:39;;;;;;;5.60;4.90;;;15.50;71.50;;;;;;5054865;28;20021;-72
2023/06/24 05:10:06;;;;;;;7.72;5.32;;;15.60;71.10;;;;;;5054796;28;20029;-72
2023/06/24 05:12:31;;;;;;;6.80;5.30;;;15.70;70.50;;;;;;5054473;28;20048;-73
2023/06/24 05:14:57;;;;;;;6.18;4.82;;;15.70;70.30;;;;;;5057541;28;20032;-72
2023/06/24 05:17:22;;;;;;;6.22;4.82;;;15.80;69.60;;;;;;5054219;28;20036;-71
2023/06/24 05:19:48;;;;;;;5.47;4.47;;;15.70;68.90;;;;;;5054695;28;20025;-75
2023/06/24 05:22:13;;;;;;;6.03;4.57;;;15.80;69.20;;;;;;5054773;28;20025;-76
2023/06/24 05:24:41;;;;;;;6.63;5.10;;;16.00;69.00;;;;;;5054373;28;20021;-78
2023/06/24 05:27:07;;;;;;;7.15;4.82;;;16.30;68.80;;;;;;5054270;28;20032;-73
2023/06/24 05:29:33;;;;;;;6.80;4.90;;;16.50;68.20;;;;;;5054377;28;20063;-75
2023/06/24 05:31:59;;;;;;;7.07;4.70;;;16.70;67.30;;;;;;5054593;28;20060;-73
2023/06/24 05:34:25;;;;;;;4.93;4.40;;;16.90;66.70;;;;;;5054610;28;20017;-75
2023/06/24 05:36:51;;;;;;;5.32;4.82;;;17.10;65.90;;;;;;5054109;28;20036;-72
2023/06/24 05:39:17;;;;;;;8.30;5.10;;;17.20;65.30;;;;;;5035934;28;20029;-81
2023/06/24 05:41:42;;;;;;;5.90;4.47;;;17.30;65.20;;;;;;5053938;28;20063;-79
2023/06/24 05:44:09;;;;;;;8.52;4.97;;;17.30;65.10;;;;;;5054292;28;20048;-73
2023/06/24 05:46:36;;;;;;;6.40;4.65;;;17.40;65.00;;;;;;5053762;28;20060;-76
2023/06/24 05:49:02;;;;;;;5.65;4.80;;;17.40;65.00;;;;;;5053549;28;20025;-74
2023/06/24 05:51:27;;;;;;;7.53;4.70;;;17.50;65.10;;;;;;5053779;28;20040;-76
2023/06/24 05:53:53;;;;;;;5.50;4.63;;;17.60;64.70;;;;;;5053929;28;20029;-74
2023/06/24 05:56:20;;;;;;;5.30;4.63;;;17.60;64.50;;;;;;5053592;28;20036;-77
2023/06/24 05:58:45;;;;;;;6.05;4.50;;;17.80;64.40;;;;;;5054078;28;20043;-74
2023/06/24 06:01:11;;;;;;;5.95;4.72;;;17.90;64.20;;;;;;5053692;28;20088;-73
2023/06/24 06:03:36;;;;;;;6.90;4.90;;;18.00;63.80;;;;;;5054117;28;20033;-79
2023/06/24 06:06:02;;;;;;;6.82;4.88;;;18.20;63.00;;;;;;5036123;28;20063;-76
2023/06/24 06:08:28;;;;;;;7.60;4.60;;;18.30;62.60;;;;;;5053374;28;20044;-75
2023/06/24 06:10:53;;;;;;;5.78;4.55;;;18.50;61.70;;;;;;5054179;28;20104;-77
2023/06/24 06:13:19;;;;;;;5.55;4.10;;;18.70;61.40;;;;;;5054044;28;20040;-77
2023/06/24 06:15:46;;;;;;;4.50;3.78;;;18.90;61.00;;;;;;5053819;28;20032;-76
2023/06/24 06:18:11;;;;;;;7.00;4.40;;;19.00;59.00;;;;;;5036160;28;20068;-77
2023/06/24 06:20:37;;;;;;;4.65;3.85;;;19.10;58.10;;;;;;5036257;28;20025;-80
2023/06/24 06:23:03;;;;;;;5.90;3.90;;;19.20;56.80;;;;;;5036152;28;20119;-79
2023/06/24 06:25:28;;;;;;;5.30;4.32;;;19.20;56.00;;;;;;5053991;28;20029;-77
2023/06/24 06:27:54;;;;;;;4.80;3.80;;;19.30;55.80;;;;;;5053937;28;20025;-73
2023/06/24 06:30:20;;;;;;;3.83;3.50;;;19.40;55.10;;;;;;5054760;28;20032;-73
2023/06/24 06:32:45;;;;;;;5.78;3.72;;;19.60;54.10;;;;;;5054392;28;20036;-73
2023/06/24 06:35:14;;;;;;;4.25;3.33;;;19.70;53.70;;;;;;5054071;28;20071;-81
2023/06/24 06:37:39;;;;;;;4.60;3.30;;;19.80;52.80;;;;;;5035679;28;20104;-79
2023/06/24 06:40:06;;;;;;;5.28;3.80;;;19.80;52.00;;;;;;5055008;28;20036;-74
2023/06/24 06:42:31;;;;;;;4.40;3.65;;;20.00;51.60;;;;;;5054256;28;20021;-82
2023/06/24 06:44:57;;;;;;;4.30;3.50;;;20.10;50.70;;;;;;5053074;28;20048;-82
2023/06/24 06:47:22;;;;;;;3.60;3.15;;;20.10;50.10;;;;;;5053567;28;20025;-83
2023/06/24 06:49:48;;;;;;;7.55;3.30;;;20.20;50.50;;;;;;5053186;28;20046;-84
2023/06/24 06:52:14;;;;;;;9.32;3.85;;;20.40;50.80;;;;;;5053925;28;20033;-82
2023/06/24 06:54:39;;;;;;;4.82;3.30;;;20.70;50.00;;;;;;5034444;28;20025;-82
2023/06/24 06:57:05;;;;;;;5.35;3.45;;;20.90;49.40;;;;;;5053804;28;20044;-82
2023/06/24 06:59:31;;;;;;;3.55;2.85;;;21.10;47.70;;;;;;5055846;28;20378;-83
2023/06/24 07:01:57;;;;;;;3.88;3.45;;;21.20;46.90;;;;;;5053162;28;20029;-80
2023/06/24 07:04:23;;;;;;;6.53;3.35;;;21.30;47.30;;;;;;5053898;28;20037;-84
2023/06/24 07:06:48;;;;;;;8.55;3.78;;;21.20;47.30;;;;;;5053722;28;20017;-85
2023/06/24 07:09:15;;;;;;;3.40;2.95;;;21.30;47.70;;;;;;5053797;28;20049;-78
2023/06/24 07:11:41;;;;;;;10.63;3.83;;;21.40;46.90;;;;;;5053734;28;20072;-88
2023/06/24 07:14:06;;;;;;;8.30;3.75;;;21.50;47.10;;;;;;5035173;28;20017;-80
2023/06/24 07:16:32;;;;;;;4.80;3.60;;;21.60;47.00;;;;;;5053177;28;20525;-79
2023/06/24 07:18:58;;;;;;;5.18;3.75;;;21.70;46.70;;;;;;5053361;28;20399;-75
2023/06/24 07:21:24;;;;;;;4.07;3.42;;;21.80;46.00;;;;;;5052555;28;20146;-78
2023/06/24 07:23:50;;;;;;;5.45;3.33;;;21.80;45.00;;;;;;5052752;28;20025;-80
2023/06/24 07:26:15;;;;;;;5.32;3.33;;;21.80;45.90;;;;;;5052803;28;20040;-77
2023/06/24 07:28:41;;;;;;;8.27;5.43;;;22.00;46.00;;;;;;5052679;28;20032;-81
2023/06/24 07:31:07;;;;;;;8.57;3.95;;;22.00;43.90;;;;;;5052690;28;20113;-81
2023/06/24 07:33:35;;;;;;;5.82;4.05;;;22.10;44.80;;;;;;5053221;28;20021;-80
2023/06/24 07:36:00;;;;;;;5.47;3.60;;;22.20;45.00;;;;;;5035541;28;20025;-77
2023/06/24 07:38:28;;;;;;;6.10;3.40;;;22.30;43.50;;;;;;5052751;28;20439;-80
2023/06/24 07:40:53;;;;;;;4.40;2.90;;;22.20;43.70;;;;;;5035131;28;20362;-81
2023/06/24 07:43:19;;;;;;;5.70;3.67;;;22.30;44.30;;;;;;5053246;28;20024;-77
2023/06/24 07:45:44;;;;;;;3.83;3.25;;;22.30;43.80;;;;;;5053198;28;20032;-79
2023/06/24 07:48:10;;;;;;;5.00;3.58;;;22.20;43.70;;;;;;5052345;28;20032;-78
2023/06/24 07:50:36;;;;;;;5.50;3.97;;;22.10;43.90;;;;;;5052567;28;20029;-81
2023/06/24 07:53:02;;;;;;;4.43;3.63;;;22.10;44.00;;;;;;5052521;28;20021;-79
2023/06/24 07:55:27;;;;;;;5.78;3.80;;;22.00;44.80;;;;;;5051368;28;20021;-75
2023/06/24 07:57:53;;;;;;;5.75;3.92;;;21.90;44.50;;;;;;5051292;28;20048;-81
2023/06/24 08:00:18;;;;;;;4.50;3.92;;;21.80;45.70;;;;;;5050971;28;20029;-77
2023/06/24 08:02:44;;;;;;;4.00;3.60;;;21.60;44.90;;;;;;5056913;28;20032;-77
2023/06/24 08:05:10;;;;;;;4.63;3.47;;;21.50;45.90;;;;;;5052841;28;20021;-81
2023/06/24 08:07:37;;;;;;;5.75;3.80;;;21.50;47.00;;;;;;5055642;28;20029;-81
2023/06/24 08:10:02;;;;;;;5.53;4.20;;;21.50;46.70;;;;;;5055837;28;20076;-81
2023/06/24 08:12:28;;;;;;;5.10;4.07;;;21.60;46.20;;;;;;5055749;28;20059;-81
2023/06/24 08:14:53;;;;;;;4.82;3.78;;;21.50;46.30;;;;;;5055766;28;20374;-80
2023/06/24 08:17:19;;;;;;;4.78;3.67;;;21.60;45.60;;;;;;5055716;28;20057;-78
2023/06/24 08:19:44;;;;;;;6.47;3.67;;;21.80;45.30;;;;;;5055293;28;20021;-80
2023/06/24 08:22:10;;;;;;;6.28;4.15;;;21.80;45.80;;;;;;5056266;28;20017;-79
2023/06/24 08:24:36;;;;;;;4.25;3.47;;;21.90;45.40;;;;;;5055547;28;20083;-79
2023/06/24 08:27:02;;;;;;;4.75;3.58;;;22.00;44.80;;;;;;5050594;28;20029;-76
2023/06/24 08:29:28;;;;;;;5.47;3.65;;;22.00;44.40;;;;;;5035556;28;20139;-75
2023/06/24 08:31:53;;;;;;;3.85;3.38;;;21.90;45.00;;;;;;5009847;28;20044;-81
2023/06/24 08:34:19;;;;;;;5.57;4.43;;;22.00;44.60;;;;;;5019451;28;20111;-76
2023/06/24 08:36:44;;;;;;;4.70;3.70;;;22.00;44.50;;;;;;4998492;28;20609;-81
2023/06/24 08:39:10;;;;;;;4.07;3.67;;;22.10;44.70;;;;;;5015752;28;20022;-79
2023/06/24 08:41:35;;;;;;;5.60;4.03;;;22.20;45.90;;;;;;5015356;28;20025;-74
2023/06/24 08:44:01;;;;;;;5.65;3.45;;;22.50;45.40;;;;;;5014170;28;20471;-71
2023/06/24 08:46:27;;;;;;;3.92;3.45;;;22.70;44.40;;;;;;5015394;28;20022;-81
2023/06/24 08:49:06;;;;;;;3.83;3.42;;;23.00;43.20;;;;;;5015441;28;20084;-80
2023/06/24 08:51:38;;;;;;;5.10;3.35;;;23.20;41.60;;;;;;5015590;28;20028;-81
2023/06/24 08:54:06;;;;;;;4.22;3.83;;;23.40;41.30;;;;;;5015991;28;20029;-77
2023/06/24 08:56:33;;;;;;;4.53;3.33;;;23.60;41.60;;;;;;5015297;28;20022;-79
2023/06/24 08:58:58;;;;;;;3.53;3.10;;;23.70;41.90;;;;;;5015250;28;20038;-72
2023/06/24 09:01:27;;;;;;;5.63;3.63;;;23.80;39.60;;;;;;5014936;28;20025;-77
2023/06/24 09:03:52;;;;;;;6.07;3.72;;;23.70;41.20;;;;;;5015008;28;20393;-79
2023/06/24 09:06:18;;;;;;;3.97;3.55;;;23.80;40.10;;;;;;5015117;28;20029;-81
2023/06/24 09:08:53;;;;;;;4.22;3.40;;;23.90;40.20;;;;;;4997416;28;20046;-82
2023/06/24 09:11:22;;;;;;;;;;;24.00;39.70;;;;;;4998235;28;20022;-80
2023/06/24 09:13:47;;;;;;;5.05;3.13;;;24.20;39.70;;;;;;5014840;28;19927;-71
2023/06/24 09:16:14;;;;;;;3.80;3.22;;;24.40;39.10;;;;;;5014907;28;20514;-76
2023/06/24 09:18:40;;;;;;;4.00;3.33;;;24.60;39.40;;;;;;5013137;28;20061;-71
2023/06/24 09:21:05;;;;;;;5.25;3.28;;;24.70;38.40;;;;;;5014644;28;20133;-72
2023/06/24 09:23:36;;;;;;;3.80;3.38;;;24.80;38.00;;;;;;5015225;28;20058;-71
2023/06/24 09:26:02;;;;;;;3.67;3.28;;;24.90;37.00;;;;;;4998366;28;20516;-80
2023/06/24 09:28:28;;;;;;;3.20;2.90;;;24.90;37.20;;;;;;5013614;28;20026;-74
2023/06/24 09:31:09;;;;;;;3.95;3.17;;;25.00;37.70;;;;;;5013524;28;20033;-76
2023/06/24 09:33:35;;;;;;;4.15;3.13;;;25.10;36.90;;;;;;5013365;28;20026;-72
2023/06/24 09:36:04;;;;;;;3.90;3.20;;;25.00;35.20;;;;;;5014979;28;20032;-81
2023/06/24 09:38:37;;;;;;;4.35;3.20;;;25.00;36.60;;;;;;5014876;28;20034;-79
2023/06/24 09:41:04;;;;;;;3.65;3.08;;;25.00;37.20;;;;;;5014604;28;20029;-71
2023/06/24 09:43:36;;;;;;;4.40;3.55;;;25.10;36.80;;;;;;5013874;28;20032;-74
2023/06/24 09:46:03;;;;;;;4.20;3.50;;;25.30;37.80;;;;;;5016012;28;20020;-70
2023/06/24 09:48:28;;;;;;;4.50;3.60;;;25.30;35.70;;;;;;5024021;28;20026;-73
2023/06/24 09:51:03;;;;;;;3.45;2.90;;;25.00;35.60;;;;;;5021718;28;20080;-77
2023/06/24 09:53:34;;;;;;;4.20;3.03;;;24.70;37.10;;;;;;5013297;28;20024;-74
2023/06/24 09:56:02;;;;;;;3.88;3.47;;;24.60;37.80;;;;;;5036784;28;20059;-83
2023/06/24 09:58:35;;;;;;;4.65;3.60;;;24.60;38.10;;;;;;5032901;28;20517;-76
2023/06/24 10:01:05;;;;;;;4.53;3.38;;;24.70;38.30;;;;;;5024315;28;20506;-72
2023/06/24 10:03:33;;;;;;;4.40;3.00;;;25.00;39.20;;;;;;5023092;28;20071;-79
2023/06/24 10:06:02;;;;;;;4.03;3.42;;;25.10;35.70;;;;;;5025410;28;20479;-81
2023/06/24 10:08:30;;;;;;;4.68;3.38;;;25.20;35.50;;;;;;5022439;28;20079;-82
2023/06/24 10:10:56;;;;;;;4.35;3.05;;;25.00;34.80;;;;;;5006394;28;20022;-72
2023/06/24 10:13:22;;;;;;;3.17;2.88;;;25.20;36.50;;;;;;5028281;28;20018;-79
2023/06/24 10:15:49;;;;;;;2.92;2.67;;;25.50;34.90;;;;;;5016831;28;20029;-80
2023/06/24 10:18:37;;;;;;;3.70;3.33;;;25.50;34.40;;;;;;5016791;28;20034;-81
2023/06/24 10:21:05;;;;;;;4.00;2.92;;;25.40;34.90;;;;;;5034246;28;20108;-80
2023/06/24 10:23:42;;;;;;;3.28;2.60;;;25.30;35.10;;;;;;5015967;28;20449;-82
2023/06/24 10:26:09;;;;;;;3.63;3.00;;;25.30;35.20;;;;;;5033427;28;20033;-82
2023/06/24 10:29:06;;;;;;;6.15;2.55;;;25.30;34.30;;;;;;5034711;28;20026;-80
2023/06/24 10:31:50;;;;;;;3.67;2.72;;;25.60;33.60;;;;;;5034179;28;20025;-79
2023/06/24 10:34:22;;;;;;;2.65;2.38;;;25.90;32.30;;;;;;5033788;28;20021;-74
2023/06/24 10:37:00;;;;;;;4.63;2.88;;;26.10;30.90;;;;;;5015861;28;20034;-78
2023/06/24 10:39:38;;;;;;;2.80;2.60;;;26.20;31.40;;;;;;5033819;28;20160;-75
2023/06/24 10:42:28;;;;;;;2.88;2.55;;;26.30;31.90;;;;;;5034828;28;20047;-76
2023/06/24 10:44:58;;;;;;;3.65;3.20;;;26.60;32.30;;;;;;5043230;28;20026;-78
2023/06/24 10:47:25;;;;;;;3.95;2.97;;;26.70;32.90;;;;;;5047121;28;20029;-74
2023/06/24 10:49:51;;;;;;;3.80;3.00;;;26.90;31.80;;;;;;5022292;28;20025;-83
2023/06/24 10:52:20;;;;;;;3.60;2.95;;;27.20;31.90;;;;;;5018664;28;20485;-77
2023/06/24 10:54:46;;;;;;;3.55;3.03;;;27.20;31.00;;;;;;5019690;28;20409;-79
2023/06/24 10:57:12;;;;;;;2.72;2.53;;;27.30;30.90;;;;;;5021102;28;20035;-81
2023/06/24 10:59:42;;;;;;;2.92;2.40;;;27.10;29.70;;;;;;5021945;28;20053;-78
2023/06/24 11:02:09;;;;;;;5.22;4.03;;;27.10;30.30;;;;;;5041204;28;20025;-77
2023/06/24 11:04:46;;;;;;;4.20;3.72;;;27.20;30.50;;;;;;5044333;28;20029;-75
2023/06/24 11:07:11;;;;;;;3.58;3.00;;;27.20;26.80;;;;;;5038324;28;20075;-80
2023/06/24 11:09:37;;;;;;;2.67;2.47;;;26.90;27.20;;;;;;5033783;28;20050;-77
2023/06/24 11:12:04;;;;;;;4.68;2.97;;;26.70;29.00;;;;;;5015728;28;20504;-79
2023/06/24 11:14:29;;;;;;;2.78;2.55;;;26.90;29.40;;;;;;5033447;28;20032;-76
2023/06/24 11:16:55;;;;;;;3.22;2.92;;;27.30;30.70;;;;;;5032865;28;20025;-77
2023/06/24 11:19:20;;;;;;;2.83;2.63;;;27.60;29.00;;;;;;5032914;28;20152;-73
2023/06/24 11:21:46;;;;;;;3.08;2.78;;;27.40;29.10;;;;;;5032515;28;20065;-73
2023/06/24 11:24:11;;;;;;;3.72;2.40;;;27.30;29.10;;;;;;5032304;28;20119;-73
2023/06/24 11:26:38;;;;;;;2.92;2.65;;;27.50;28.10;;;;;;5032352;28;20393;-73
2023/06/24 11:29:29;;;;;;;3.38;2.72;;;27.50;28.70;;;;;;5032645;28;20029;-82
2023/06/24 11:31:55;;;;;;;3.15;2.83;;;27.40;27.00;;;;;;5032557;28;20112;-74
2023/06/24 11:34:21;;;;;;;3.67;3.15;;;27.10;28.10;;;;;;5032721;28;20584;-74
2023/06/24 11:36:48;;;;;;;3.75;3.30;;;27.20;28.90;;;;;;5032372;28;20112;-75
2023/06/24 11:39:23;;;;;;;2.85;2.55;;;27.30;28.80;;;;;;5032400;28;20061;-79
2023/06/24 11:41:52;;;;;;;4.88;2.58;;;27.50;27.30;;;;;;5035571;28;20025;-79
2023/06/24 11:44:19;;;;;;;2.90;2.58;;;27.70;26.50;;;;;;5036556;28;20484;-74
2023/06/24 11:46:45;;;;;;;3.88;3.05;;;27.90;25.30;;;;;;5036445;28;20108;-80
2023/06/24 11:49:12;;;;;;;2.92;2.63;;;28.00;24.20;;;;;;5036534;28;20060;-82
2023/06/24 11:51:47;;;;;;;2.75;2.22;;;27.90;25.10;;;;;;5036386;28;20064;-77
2023/06/24 11:54:13;;;;;;;2.65;2.40;;;27.90;26.30;;;;;;5036396;28;20025;-79
2023/06/24 11:56:41;;;;;;;3.13;2.65;;;27.90;25.10;;;;;;5036339;28;20140;-82
2023/06/24 11:59:19;;;;;;;3.25;2.60;;;27.70;26.00;;;;;;5018637;28;20083;-83
2023/06/24 12:01:59;;;;;;;3.30;3.00;;;27.70;27.30;;;;;;5036329;28;20030;-80
2023/06/24 12:04:29;;;;;;;3.58;2.88;;;28.00;29.20;;;;;;5036194;28;20037;-83
2023/06/24 12:06:54;;;;;;;3.30;3.00;;;28.20;28.60;;;;;;5019474;28;20400;-81
2023/06/24 12:09:20;;;;;;;3.33;2.70;;;28.40;27.70;;;;;;5037256;28;20048;-75
2023/06/24 12:11:45;;;;;;;3.38;2.60;;;28.50;28.40;;;;;;5037658;28;20087;-84
2023/06/24 12:14:11;;;;;;;2.92;2.25;;;28.70;26.30;;;;;;5018960;28;20018;-84
2023/06/24 12:16:38;;;;;;;2.97;2.65;;;29.00;27.00;;;;;;5036343;28;20026;-83
2023/06/24 12:19:03;;;;;;;2.80;2.60;;;29.20;27.00;;;;;;5036596;28;20083;-81
2023/06/24 12:21:29;;;;;;;2.55;2.35;;;29.40;25.70;;;;;;5018947;28;20374;-84
2023/06/24 12:23:54;;;;;;;3.67;2.80;;;29.60;24.90;;;;;;5036648;28;20025;-84
2023/06/24 12:26:20;;;;;;;3.42;2.65;;;29.40;24.80;;;;;;5037829;28;20533;-84
2023/06/24 12:28:45;;;;;;;2.55;2.35;;;29.40;25.10;;;;;;5036398;28;20044;-84
2023/06/24 12:31:11;;;;;;;3.03;2.58;;;29.50;25.80;;;;;;5037356;28;20032;-85
2023/06/24 12:33:37;;;;;;;3.50;2.92;;;29.70;25.70;;;;;;5036397;28;20037;-83
2023/06/24 12:36:03;;;;;;;2.55;2.28;;;29.80;25.20;;;;;;5037426;28;20022;-83
2023/06/24 12:38:28;;;;;;;4.15;2.50;;;30.00;25.90;;;;;;5038443;28;20029;-84
2023/06/24 12:40:54;;;;;;;2.72;2.47;;;30.00;24.20;;;;;;5025697;28;20462;-85
2023/06/24 12:43:19;;;;;;;3.97;2.72;;;30.10;24.90;;;;;;5046324;28;20058;-82
2023/06/24 12:45:45;;;;;;;3.45;2.63;;;30.10;21.10;;;;;;5045839;28;20026;-85
2023/06/24 12:48:12;;;;;;;3.10;2.80;;;29.70;20.40;;;;;;5046982;28;20037;-84